sensor_id;sensor_type;location;lat;lon;timestamp;pressure;altitude;pressure_sealevel;temperature;humidity
53246;BME280;39569;51.090;-1.786;2023-08-20T00:01:11;101285.81;;;27.60;47.01
53246;BME280;39569;51.090;-1.786;2023-08-20T00:03:39;101299.50;;;27.45;47.62
53246;BME280;39569;51.090;-1.786;2023-08-20T00:06:07;101292.94;;;27.56;47.52
53246;BME280;39569;51.090;-1.786;2023-08-20T00:08:34;101300.09;;;27.62;47.15
53246;BME280;39569;51.090;-1.786;2023-08-20T00:11:02;101297.88;;;27.54;47.48
53246;BME280;39569;51.090;-1.786;2023-08-20T00:13:30;101295.41;;;27.47;46.81
53246;BME280;39569;51.090;-1.786;2023-08-20T00:15:57;101300.34;;;27.45;47.38
53246;BME280;39569;51.090;-1.786;2023-08-20T00:18:24;101308.28;;;27.47;47.47
53246;BME280;39569;51.090;-1.786;2023-08-20T00:20:52;101317.38;;;26.85;49.16
53246;BME280;39569;51.090;-1.786;2023-08-20T00:23:20;101311.97;;;26.95;48.53
53246;BME280;39569;51.090;-1.786;2023-08-20T00:25:47;101315.41;;;27.38;47.55
53246;BME280;39569;51.090;-1.786;2023-08-20T00:28:15;101306.91;;;27.49;47.33
53246;BME280;39569;51.090;-1.786;2023-08-20T00:30:42;101316.78;;;27.40;47.32
53246;BME280;39569;51.090;-1.786;2023-08-20T00:33:09;101315.91;;;27.30;47.24
53246;BME280;39569;51.090;-1.786;2023-08-20T00:35:36;101313.66;;;27.21;47.77
53246;BME280;39569;51.090;-1.786;2023-08-20T00:38:03;101309.56;;;27.24;47.15
53246;BME280;39569;51.090;-1.786;2023-08-20T00:40:30;101315.78;;;26.99;47.54
53246;BME280;39569;51.090;-1.786;2023-08-20T00:42:57;101310.28;;;26.89;47.83
53246;BME280;39569;51.090;-1.786;2023-08-20T00:45:26;101321.03;;;27.01;47.89
53246;BME280;39569;51.090;-1.786;2023-08-20T00:47:53;101313.53;;;26.81;48.03
53246;BME280;39569;51.090;-1.786;2023-08-20T00:50:20;101316.81;;;26.78;48.13
53246;BME280;39569;51.090;-1.786;2023-08-20T00:52:47;101316.53;;;26.75;47.68
53246;BME280;39569;51.090;-1.786;2023-08-20T00:55:15;101320.47;;;26.52;48.84
53246;BME280;39569;51.090;-1.786;2023-08-20T00:57:42;101313.97;;;26.63;48.54
53246;BME280;39569;51.090;-1.786;2023-08-20T01:00:10;101328.63;;;26.42;48.54
53246;BME280;39569;51.090;-1.786;2023-08-20T01:02:38;101322.41;;;26.57;48.76
53246;BME280;39569;51.090;-1.786;2023-08-20T01:05:08;101325.47;;;26.60;48.69
53246;BME280;39569;51.090;-1.786;2023-08-20T01:07:43;101331.91;;;26.44;48.79
53246;BME280;39569;51.090;-1.786;2023-08-20T01:10:18;101340.25;;;26.64;48.41
53246;BME280;39569;51.090;-1.786;2023-08-20T01:12:46;101338.81;;;26.52;48.39
53246;BME280;39569;51.090;-1.786;2023-08-20T01:15:12;101349.47;;;26.43;49.47
53246;BME280;39569;51.090;-1.786;2023-08-20T01:17:42;101350.78;;;26.72;49.10
53246;BME280;39569;51.090;-1.786;2023-08-20T01:20:10;101348.84;;;26.73;48.54
53246;BME280;39569;51.090;-1.786;2023-08-20T01:23:16;101347.53;;;26.80;48.87
53246;BME280;39569;51.090;-1.786;2023-08-20T01:26:01;101353.25;;;26.79;48.90
53246;BME280;39569;51.090;-1.786;2023-08-20T01:28:36;101347.84;;;26.94;49.04
53246;BME280;39569;51.090;-1.786;2023-08-20T01:31:05;101348.03;;;26.77;49.22
53246;BME280;39569;51.090;-1.786;2023-08-20T01:33:32;101352.47;;;26.83;48.99
53246;BME280;39569;51.090;-1.786;2023-08-20T01:35:59;101340.19;;;26.96;48.59
53246;BME280;39569;51.090;-1.786;2023-08-20T01:38:26;101338.00;;;26.93;49.09
53246;BME280;39569;51.090;-1.786;2023-08-20T01:40:53;101338.56;;;27.00;48.88
53246;BME280;39569;51.090;-1.786;2023-08-20T01:43:21;101340.75;;;26.98;48.56
53246;BME280;39569;51.090;-1.786;2023-08-20T01:45:49;101342.75;;;27.17;48.59
53246;BME280;39569;51.090;-1.786;2023-08-20T01:48:16;101344.31;;;26.98;48.84
53246;BME280;39569;51.090;-1.786;2023-08-20T01:50:43;101332.84;;;27.06;48.82
53246;BME280;39569;51.090;-1.786;2023-08-20T01:53:11;101335.25;;;26.93;48.77
53246;BME280;39569;51.090;-1.786;2023-08-20T01:55:38;101337.72;;;26.94;48.80
53246;BME280;39569;51.090;-1.786;2023-08-20T01:58:05;101338.06;;;27.13;48.67
53246;BME280;39569;51.090;-1.786;2023-08-20T02:00:31;101341.94;;;27.22;48.29
53246;BME280;39569;51.090;-1.786;2023-08-20T02:03:00;101337.66;;;27.36;47.93
53246;BME280;39569;51.090;-1.786;2023-08-20T02:05:27;101344.69;;;27.22;48.36
53246;BME280;39569;51.090;-1.786;2023-08-20T02:07:54;101353.28;;;27.41;47.92
53246;BME280;39569;51.090;-1.786;2023-08-20T02:10:21;101342.06;;;27.52;47.67
53246;BME280;39569;51.090;-1.786;2023-08-20T02:12:48;101345.09;;;27.51;47.63
53246;BME280;39569;51.090;-1.786;2023-08-20T02:15:14;101353.56;;;27.44;47.64
53246;BME280;39569;51.090;-1.786;2023-08-20T02:17:41;101351.09;;;27.43;47.63
53246;BME280;39569;51.090;-1.786;2023-08-20T02:20:10;101357.59;;;27.27;48.47
53246;BME280;39569;51.090;-1.786;2023-08-20T02:22:37;101363.47;;;27.45;48.07
53246;BME280;39569;51.090;-1.786;2023-08-20T02:25:04;101346.75;;;27.62;47.28
53246;BME280;39569;51.090;-1.786;2023-08-20T02:27:31;101345.41;;;27.69;47.45
53246;BME280;39569;51.090;-1.786;2023-08-20T02:29:58;101350.84;;;27.64;47.42
53246;BME280;39569;51.090;-1.786;2023-08-20T02:32:25;101357.75;;;27.72;47.43
53246;BME280;39569;51.090;-1.786;2023-08-20T02:34:52;101350.34;;;27.82;46.97
53246;BME280;39569;51.090;-1.786;2023-08-20T02:37:21;101352.78;;;27.59;47.52
53246;BME280;39569;51.090;-1.786;2023-08-20T02:39:48;101350.03;;;27.59;47.23
53246;BME280;39569;51.090;-1.786;2023-08-20T02:42:14;101356.06;;;27.61;47.32
53246;BME280;39569;51.090;-1.786;2023-08-20T02:44:41;101353.84;;;27.48;47.71
53246;BME280;39569;51.090;-1.786;2023-08-20T02:47:09;101358.72;;;26.74;49.29
53246;BME280;39569;51.090;-1.786;2023-08-20T02:49:35;101355.56;;;26.18;51.03
53246;BME280;39569;51.090;-1.786;2023-08-20T02:52:02;101351.63;;;26.83;49.34
53246;BME280;39569;51.090;-1.786;2023-08-20T02:54:31;101358.09;;;25.93;51.95
53246;BME280;39569;51.090;-1.786;2023-08-20T02:56:58;101353.81;;;26.81;49.56
53246;BME280;39569;51.090;-1.786;2023-08-20T02:59:25;101359.47;;;27.16;48.16
53246;BME280;39569;51.090;-1.786;2023-08-20T03:01:52;101355.38;;;27.13;48.33
53246;BME280;39569;51.090;-1.786;2023-08-20T03:04:19;101354.69;;;27.43;47.89
53246;BME280;39569;51.090;-1.786;2023-08-20T03:06:45;101347.56;;;27.57;47.53
53246;BME280;39569;51.090;-1.786;2023-08-20T03:09:12;101351.69;;;27.60;47.47
53246;BME280;39569;51.090;-1.786;2023-08-20T03:11:41;101347.03;;;27.70;47.36
53246;BME280;39569;51.090;-1.786;2023-08-20T03:14:08;101347.28;;;27.54;47.16
53246;BME280;39569;51.090;-1.786;2023-08-20T03:16:35;101339.88;;;27.54;47.23
53246;BME280;39569;51.090;-1.786;2023-08-20T03:19:01;101346.72;;;27.57;46.94
53246;BME280;39569;51.090;-1.786;2023-08-20T03:21:28;101350.53;;;27.36;47.27
53246;BME280;39569;51.090;-1.786;2023-08-20T03:23:55;101343.38;;;27.35;47.36
53246;BME280;39569;51.090;-1.786;2023-08-20T03:26:22;101344.88;;;27.00;48.62
53246;BME280;39569;51.090;-1.786;2023-08-20T03:28:50;101346.69;;;27.37;47.95
53246;BME280;39569;51.090;-1.786;2023-08-20T03:31:17;101354.59;;;27.28;47.66
53246;BME280;39569;51.090;-1.786;2023-08-20T03:33:44;101354.03;;;27.26;47.76
53246;BME280;39569;51.090;-1.786;2023-08-20T03:36:10;101362.06;;;27.38;47.78
53246;BME280;39569;51.090;-1.786;2023-08-20T03:38:37;101353.00;;;27.32;47.59
53246;BME280;39569;51.090;-1.786;2023-08-20T03:41:04;101352.06;;;27.16;48.34
53246;BME280;39569;51.090;-1.786;2023-08-20T03:43:31;101360.41;;;27.37;47.82
53246;BME280;39569;51.090;-1.786;2023-08-20T03:45:59;101353.31;;;27.51;47.65
53246;BME280;39569;51.090;-1.786;2023-08-20T03:48:26;101356.69;;;27.01;48.46
53246;BME280;39569;51.090;-1.786;2023-08-20T03:50:53;101350.38;;;27.05;48.45
53246;BME280;39569;51.090;-1.786;2023-08-20T03:53:20;101356.72;;;26.22;49.69
53246;BME280;39569;51.090;-1.786;2023-08-20T03:55:50;101367.03;;;26.47;49.51
53246;BME280;39569;51.090;-1.786;2023-08-20T03:58:17;101360.53;;;26.21;50.17
53246;BME280;39569;51.090;-1.786;2023-08-20T04:00:43;101360.38;;;25.75;51.68
53246;BME280;39569;51.090;-1.786;2023-08-20T04:03:12;101365.59;;;26.76;49.17
53246;BME280;39569;51.090;-1.786;2023-08-20T04:05:39;101355.66;;;25.70;51.11
53246;BME280;39569;51.090;-1.786;2023-08-20T04:08:06;101371.06;;;25.76;51.82
53246;BME280;39569;51.090;-1.786;2023-08-20T04:10:33;101375.94;;;26.01;50.40
53246;BME280;39569;51.090;-1.786;2023-08-20T04:13:00;101379.03;;;25.83;51.13
53246;BME280;39569;51.090;-1.786;2023-08-20T04:15:27;101384.53;;;26.41;49.90
53246;BME280;39569;51.090;-1.786;2023-08-20T04:17:53;101384.25;;;26.43;49.67
53246;BME280;39569;51.090;-1.786;2023-08-20T04:20:22;101388.41;;;26.87;48.57
53246;BME280;39569;51.090;-1.786;2023-08-20T04:22:49;101393.88;;;26.82;48.73
53246;BME280;39569;51.090;-1.786;2023-08-20T04:25:16;101390.34;;;26.18;49.85
53246;BME280;39569;51.090;-1.786;2023-08-20T04:27:42;101392.00;;;26.51;49.73
53246;BME280;39569;51.090;-1.786;2023-08-20T04:30:10;101391.59;;;27.20;48.13
53246;BME280;39569;51.090;-1.786;2023-08-20T04:32:37;101393.22;;;27.16;48.06
53246;BME280;39569;51.090;-1.786;2023-08-20T04:35:05;101393.59;;;27.35;47.31
53246;BME280;39569;51.090;-1.786;2023-08-20T04:37:33;101393.63;;;26.88;48.23
53246;BME280;39569;51.090;-1.786;2023-08-20T04:40:00;101395.28;;;26.89;48.12
53246;BME280;39569;51.090;-1.786;2023-08-20T04:42:27;101397.13;;;26.42;49.33
53246;BME280;39569;51.090;-1.786;2023-08-20T04:44:53;101402.66;;;26.47;48.95
53246;BME280;39569;51.090;-1.786;2023-08-20T04:47:20;101403.25;;;26.96;48.48
53246;BME280;39569;51.090;-1.786;2023-08-20T04:49:47;101405.81;;;26.66;48.53
53246;BME280;39569;51.090;-1.786;2023-08-20T04:52:14;101414.03;;;26.02;50.56
53246;BME280;39569;51.090;-1.786;2023-08-20T04:54:42;101405.81;;;26.66;49.13
53246;BME280;39569;51.090;-1.786;2023-08-20T04:57:08;101413.72;;;26.99;47.57
53246;BME280;39569;51.090;-1.786;2023-08-20T04:59:35;101419.50;;;27.02;47.53
53246;BME280;39569;51.090;-1.786;2023-08-20T05:02:02;101421.78;;;25.62;51.09
53246;BME280;39569;51.090;-1.786;2023-08-20T05:04:29;101432.09;;;25.77;50.81
53246;BME280;39569;51.090;-1.786;2023-08-20T05:06:56;101419.31;;;26.41;49.47
53246;BME280;39569;51.090;-1.786;2023-08-20T05:09:22;101427.22;;;26.05;50.19
53246;BME280;39569;51.090;-1.786;2023-08-20T05:11:51;101426.09;;;26.33;49.38
53246;BME280;39569;51.090;-1.786;2023-08-20T05:14:17;101429.72;;;26.70;48.79
53246;BME280;39569;51.090;-1.786;2023-08-20T05:16:44;101433.56;;;26.69;48.49
53246;BME280;39569;51.090;-1.786;2023-08-20T05:19:11;101436.78;;;26.66;48.14
53246;BME280;39569;51.090;-1.786;2023-08-20T05:21:38;101437.94;;;26.70;48.43
53246;BME280;39569;51.090;-1.786;2023-08-20T05:24:05;101441.06;;;26.89;48.36
53246;BME280;39569;51.090;-1.786;2023-08-20T05:26:32;101446.38;;;27.00;47.34
53246;BME280;39569;51.090;-1.786;2023-08-20T05:29:00;101441.47;;;27.07;47.96
53246;BME280;39569;51.090;-1.786;2023-08-20T05:31:27;101451.28;;;26.62;48.42
53246;BME280;39569;51.090;-1.786;2023-08-20T05:33:54;101447.47;;;26.68;48.07
53246;BME280;39569;51.090;-1.786;2023-08-20T05:36:21;101444.88;;;26.51;48.67
53246;BME280;39569;51.090;-1.786;2023-08-20T05:38:47;101443.94;;;26.36;48.92
53246;BME280;39569;51.090;-1.786;2023-08-20T05:41:14;101445.38;;;26.43;49.14
53246;BME280;39569;51.090;-1.786;2023-08-20T05:43:41;101437.88;;;26.65;48.38
53246;BME280;39569;51.090;-1.786;2023-08-20T05:46:09;101448.81;;;26.97;47.47
53246;BME280;39569;51.090;-1.786;2023-08-20T05:48:36;101448.91;;;27.12;47.44
53246;BME280;39569;51.090;-1.786;2023-08-20T05:51:03;101451.66;;;26.75;48.00
53246;BME280;39569;51.090;-1.786;2023-08-20T05:53:29;101460.56;;;26.29;48.90
53246;BME280;39569;51.090;-1.786;2023-08-20T05:55:56;101448.00;;;26.65;48.42
53246;BME280;39569;51.090;-1.786;2023-08-20T05:58:23;101460.06;;;25.79;50.49
53246;BME280;39569;51.090;-1.786;2023-08-20T06:00:50;101455.50;;;26.74;48.56
53246;BME280;39569;51.090;-1.786;2023-08-20T06:03:18;101458.91;;;26.23;49.67
53246;BME280;39569;51.090;-1.786;2023-08-20T06:05:45;101475.25;;;25.91;50.22
53246;BME280;39569;51.090;-1.786;2023-08-20T06:08:11;101464.03;;;26.46;48.76
53246;BME280;39569;51.090;-1.786;2023-08-20T06:10:38;101466.50;;;26.48;48.44
53246;BME280;39569;51.090;-1.786;2023-08-20T06:13:05;101460.81;;;26.54;49.15
53246;BME280;39569;51.090;-1.786;2023-08-20T06:15:32;101468.56;;;26.99;48.02
53246;BME280;39569;51.090;-1.786;2023-08-20T06:17:58;101470.66;;;26.87;47.87
53246;BME280;39569;51.090;-1.786;2023-08-20T06:20:26;101474.25;;;26.56;49.06
53246;BME280;39569;51.090;-1.786;2023-08-20T06:22:53;101472.78;;;27.16;47.10
53246;BME280;39569;51.090;-1.786;2023-08-20T06:25:20;101487.44;;;25.79;49.72
53246;BME280;39569;51.090;-1.786;2023-08-20T06:27:47;101477.34;;;25.63;51.29
53246;BME280;39569;51.090;-1.786;2023-08-20T06:30:14;101471.56;;;26.97;47.67
53246;BME280;39569;51.090;-1.786;2023-08-20T06:32:41;101482.28;;;26.36;49.40
53246;BME280;39569;51.090;-1.786;2023-08-20T06:35:08;101489.53;;;26.20;48.93
53246;BME280;39569;51.090;-1.786;2023-08-20T06:37:38;101478.91;;;26.87;47.56
53246;BME280;39569;51.090;-1.786;2023-08-20T06:40:06;101475.78;;;27.15;47.58
53246;BME280;39569;51.090;-1.786;2023-08-20T06:42:33;101477.22;;;27.28;47.08
53246;BME280;39569;51.090;-1.786;2023-08-20T06:45:00;101474.38;;;27.54;46.09
53246;BME280;39569;51.090;-1.786;2023-08-20T06:47:27;101471.56;;;28.06;45.09
53246;BME280;39569;51.090;-1.786;2023-08-20T06:49:54;101474.06;;;28.48;44.17
53246;BME280;39569;51.090;-1.786;2023-08-20T06:52:21;101479.31;;;27.47;46.43
53246;BME280;39569;51.090;-1.786;2023-08-20T06:54:49;101483.31;;;27.91;45.87
53246;BME280;39569;51.090;-1.786;2023-08-20T06:57:15;101486.78;;;27.62;46.22
53246;BME280;39569;51.090;-1.786;2023-08-20T06:59:42;101492.84;;;27.22;46.52
53246;BME280;39569;51.090;-1.786;2023-08-20T07:02:09;101485.16;;;27.71;46.02
53246;BME280;39569;51.090;-1.786;2023-08-20T07:04:36;101489.72;;;27.45;46.29
53246;BME280;39569;51.090;-1.786;2023-08-20T07:07:03;101488.31;;;27.43;46.51
53246;BME280;39569;51.090;-1.786;2023-08-20T07:09:31;101480.75;;;26.76;48.21
53246;BME280;39569;51.090;-1.786;2023-08-20T07:11:59;101480.25;;;27.26;47.08
53246;BME280;39569;51.090;-1.786;2023-08-20T07:14:26;101487.88;;;26.77;47.78
53246;BME280;39569;51.090;-1.786;2023-08-20T07:16:53;101479.09;;;27.64;46.03
53246;BME280;39569;51.090;-1.786;2023-08-20T07:19:20;101495.44;;;27.44;46.89
53246;BME280;39569;51.090;-1.786;2023-08-20T07:21:47;101491.38;;;27.04;47.08
53246;BME280;39569;51.090;-1.786;2023-08-20T07:24:13;101497.44;;;27.06;47.03
53246;BME280;39569;51.090;-1.786;2023-08-20T07:26:40;101495.28;;;27.18;47.03
53246;BME280;39569;51.090;-1.786;2023-08-20T07:29:09;101506.38;;;27.34;46.48
53246;BME280;39569;51.090;-1.786;2023-08-20T07:31:35;101499.84;;;27.40;46.36
53246;BME280;39569;51.090;-1.786;2023-08-20T07:34:03;101502.28;;;28.03;45.08
53246;BME280;39569;51.090;-1.786;2023-08-20T07:36:30;101502.09;;;28.45;44.56
53246;BME280;39569;51.090;-1.786;2023-08-20T07:38:57;101497.19;;;28.82;44.19
53246;BME280;39569;51.090;-1.786;2023-08-20T07:41:24;101514.91;;;27.37;46.94
53246;BME280;39569;51.090;-1.786;2023-08-20T07:43:51;101507.03;;;27.51;46.39
53246;BME280;39569;51.090;-1.786;2023-08-20T07:46:19;101510.44;;;27.83;46.42
53246;BME280;39569;51.090;-1.786;2023-08-20T07:48:46;101509.25;;;26.75;47.16
53246;BME280;39569;51.090;-1.786;2023-08-20T07:51:13;101519.22;;;27.28;45.92
53246;BME280;39569;51.090;-1.786;2023-08-20T07:53:39;101513.88;;;27.53;45.78
53246;BME280;39569;51.090;-1.786;2023-08-20T07:56:06;101517.75;;;28.19;44.93
53246;BME280;39569;51.090;-1.786;2023-08-20T07:58:34;101514.41;;;28.07;44.56
53246;BME280;39569;51.090;-1.786;2023-08-20T08:01:01;101517.53;;;28.81;43.13
53246;BME280;39569;51.090;-1.786;2023-08-20T08:03:29;101518.06;;;29.28;43.16
53246;BME280;39569;51.090;-1.786;2023-08-20T08:05:56;101527.44;;;28.92;43.22
53246;BME280;39569;51.090;-1.786;2023-08-20T08:08:23;101525.34;;;27.40;45.96
53246;BME280;39569;51.090;-1.786;2023-08-20T08:10:50;101523.88;;;27.74;45.55
53246;BME280;39569;51.090;-1.786;2023-08-20T08:13:20;101523.88;;;28.76;44.14
53246;BME280;39569;51.090;-1.786;2023-08-20T08:15:48;101514.47;;;29.28;41.98
53246;BME280;39569;51.090;-1.786;2023-08-20T08:18:15;101516.44;;;29.12;41.97
53246;BME280;39569;51.090;-1.786;2023-08-20T08:20:44;101517.75;;;30.09;41.61
53246;BME280;39569;51.090;-1.786;2023-08-20T08:23:11;101520.84;;;29.97;40.64
53246;BME280;39569;51.090;-1.786;2023-08-20T08:25:38;101519.94;;;29.43;40.97
53246;BME280;39569;51.090;-1.786;2023-08-20T08:28:05;101530.47;;;29.00;42.60
53246;BME280;39569;51.090;-1.786;2023-08-20T08:30:32;101531.00;;;28.92;42.37
53246;BME280;39569;51.090;-1.786;2023-08-20T08:32:59;101534.53;;;27.61;45.74
53246;BME280;39569;51.090;-1.786;2023-08-20T08:35:26;101540.63;;;29.00;42.90
53246;BME280;39569;51.090;-1.786;2023-08-20T08:37:54;101538.25;;;27.91;44.60
53246;BME280;39569;51.090;-1.786;2023-08-20T08:40:21;101537.91;;;27.83;45.25
53246;BME280;39569;51.090;-1.786;2023-08-20T08:42:49;101544.94;;;29.61;42.25
53246;BME280;39569;51.090;-1.786;2023-08-20T08:45:17;101543.13;;;30.54;41.21
53246;BME280;39569;51.090;-1.786;2023-08-20T08:47:45;101541.50;;;31.68;38.46
53246;BME280;39569;51.090;-1.786;2023-08-20T08:50:13;101548.84;;;30.14;39.65
53246;BME280;39569;51.090;-1.786;2023-08-20T08:52:41;101545.44;;;31.10;38.89
53246;BME280;39569;51.090;-1.786;2023-08-20T08:55:10;101551.97;;;30.51;38.72
53246;BME280;39569;51.090;-1.786;2023-08-20T08:57:38;101548.53;;;29.62;40.54
53246;BME280;39569;51.090;-1.786;2023-08-20T09:00:05;101562.69;;;30.04;40.16
53246;BME280;39569;51.090;-1.786;2023-08-20T09:02:33;101552.38;;;29.61;40.04
53246;BME280;39569;51.090;-1.786;2023-08-20T09:04:59;101547.28;;;30.90;39.29
53246;BME280;39569;51.090;-1.786;2023-08-20T09:07:26;101558.31;;;30.90;37.31
53246;BME280;39569;51.090;-1.786;2023-08-20T09:09:57;101557.75;;;31.74;35.31
53246;BME280;39569;51.090;-1.786;2023-08-20T09:12:26;101539.25;;;31.94;34.83
53246;BME280;39569;51.090;-1.786;2023-08-20T09:14:53;101548.47;;;33.14;32.51
53246;BME280;39569;51.090;-1.786;2023-08-20T09:17:25;101552.41;;;34.22;31.14
53246;BME280;39569;51.090;-1.786;2023-08-20T09:19:54;101545.91;;;33.63;32.35
53246;BME280;39569;51.090;-1.786;2023-08-20T09:22:23;101544.06;;;33.45;32.63
53246;BME280;39569;51.090;-1.786;2023-08-20T09:24:54;101549.50;;;33.50;32.07
53246;BME280;39569;51.090;-1.786;2023-08-20T09:27:22;101532.63;;;36.04;29.58
53246;BME280;39569;51.090;-1.786;2023-08-20T09:29:51;101543.94;;;34.54;30.78
53246;BME280;39569;51.090;-1.786;2023-08-20T09:32:20;101528.13;;;35.38;30.22
53246;BME280;39569;51.090;-1.786;2023-08-20T09:34:48;101542.19;;;34.44;30.61
53246;BME280;39569;51.090;-1.786;2023-08-20T09:37:18;101538.19;;;32.13;34.04
53246;BME280;39569;51.090;-1.786;2023-08-20T09:39:45;101547.09;;;32.10;32.94
53246;BME280;39569;51.090;-1.786;2023-08-20T09:42:13;101545.59;;;33.79;30.67
53246;BME280;39569;51.090;-1.786;2023-08-20T09:44:41;101543.81;;;33.83;31.48
53246;BME280;39569;51.090;-1.786;2023-08-20T09:47:11;101538.06;;;35.61;29.06
53246;BME280;39569;51.090;-1.786;2023-08-20T09:49:39;101539.22;;;33.92;31.40
53246;BME280;39569;51.090;-1.786;2023-08-20T09:52:07;101540.00;;;34.55;29.92
53246;BME280;39569;51.090;-1.786;2023-08-20T09:54:59;101542.44;;;31.58;35.04
53246;BME280;39569;51.090;-1.786;2023-08-20T09:57:32;101535.25;;;34.20;31.92
53246;BME280;39569;51.090;-1.786;2023-08-20T10:00:00;101535.50;;;33.28;32.32
53246;BME280;39569;51.090;-1.786;2023-08-20T10:02:29;101538.56;;;31.36;35.33
53246;BME280;39569;51.090;-1.786;2023-08-20T10:04:57;101540.13;;;30.89;35.92
53246;BME280;39569;51.090;-1.786;2023-08-20T10:07:28;101535.84;;;30.68;37.74
53246;BME280;39569;51.090;-1.786;2023-08-20T10:09:57;101533.09;;;32.02;34.94
53246;BME280;39569;51.090;-1.786;2023-08-20T10:12:26;101517.50;;;31.87;34.90
53246;BME280;39569;51.090;-1.786;2023-08-20T10:14:53;101521.38;;;31.15;35.43
53246;BME280;39569;51.090;-1.786;2023-08-20T10:17:22;101536.22;;;30.03;38.20
53246;BME280;39569;51.090;-1.786;2023-08-20T10:19:51;101529.91;;;31.66;34.80
53246;BME280;39569;51.090;-1.786;2023-08-20T10:22:18;101515.38;;;33.36;33.28
53246;BME280;39569;51.090;-1.786;2023-08-20T10:24:48;101520.31;;;33.80;33.64
53246;BME280;39569;51.090;-1.786;2023-08-20T10:27:26;101528.81;;;31.67;34.73
53246;BME280;39569;51.090;-1.786;2023-08-20T10:29:53;101536.59;;;33.27;33.52
53246;BME280;39569;51.090;-1.786;2023-08-20T10:32:21;101519.22;;;32.95;34.46
53246;BME280;39569;51.090;-1.786;2023-08-20T10:35:09;101531.59;;;31.43;35.06
53246;BME280;39569;51.090;-1.786;2023-08-20T10:37:36;101527.72;;;32.47;34.17
53246;BME280;39569;51.090;-1.786;2023-08-20T10:40:03;101526.44;;;33.09;32.74
53246;BME280;39569;51.090;-1.786;2023-08-20T10:42:30;101517.38;;;32.71;32.41
53246;BME280;39569;51.090;-1.786;2023-08-20T10:45:02;101511.31;;;35.91;28.36
53246;BME280;39569;51.090;-1.786;2023-08-20T10:47:42;101516.44;;;36.40;27.71
53246;BME280;39569;51.090;-1.786;2023-08-20T10:50:15;101520.50;;;37.02;26.58
53246;BME280;39569;51.090;-1.786;2023-08-20T10:52:47;101512.38;;;38.55;24.96
53246;BME280;39569;51.090;-1.786;2023-08-20T10:55:14;101522.44;;;38.35;24.15
53246;BME280;39569;51.090;-1.786;2023-08-20T10:57:41;101510.13;;;40.22;22.77
53246;BME280;39569;51.090;-1.786;2023-08-20T11:00:09;101526.25;;;37.43;26.08
53246;BME280;39569;51.090;-1.786;2023-08-20T11:02:42;101525.75;;;40.23;23.89
53246;BME280;39569;51.090;-1.786;2023-08-20T11:05:17;101511.59;;;40.32;25.04
53246;BME280;39569;51.090;-1.786;2023-08-20T11:07:45;101528.41;;;37.76;25.81
53246;BME280;39569;51.090;-1.786;2023-08-20T11:10:13;101510.94;;;37.87;25.26
53246;BME280;39569;51.090;-1.786;2023-08-20T11:12:41;101518.56;;;38.61;25.48
53246;BME280;39569;51.090;-1.786;2023-08-20T11:15:09;101511.06;;;40.14;22.91
53246;BME280;39569;51.090;-1.786;2023-08-20T11:17:41;101505.31;;;41.06;21.79
53246;BME280;39569;51.090;-1.786;2023-08-20T11:20:09;101510.19;;;41.09;22.28
53246;BME280;39569;51.090;-1.786;2023-08-20T11:22:38;101508.09;;;40.63;22.73
53246;BME280;39569;51.090;-1.786;2023-08-20T11:25:10;101505.06;;;41.27;20.32
53246;BME280;39569;51.090;-1.786;2023-08-20T11:27:40;101502.06;;;41.51;20.47
53246;BME280;39569;51.090;-1.786;2023-08-20T11:30:08;101492.16;;;42.83;20.05
53246;BME280;39569;51.090;-1.786;2023-08-20T11:32:36;101493.91;;;42.12;19.90
53246;BME280;39569;51.090;-1.786;2023-08-20T11:35:04;101497.53;;;40.56;22.15
53246;BME280;39569;51.090;-1.786;2023-08-20T11:37:31;101495.72;;;39.24;23.32
53246;BME280;39569;51.090;-1.786;2023-08-20T11:39:59;101501.34;;;40.24;22.40
53246;BME280;39569;51.090;-1.786;2023-08-20T11:42:26;101505.91;;;40.29;21.87
53246;BME280;39569;51.090;-1.786;2023-08-20T11:44:55;101496.53;;;41.54;20.71
53246;BME280;39569;51.090;-1.786;2023-08-20T11:47:22;101501.91;;;40.30;21.08
53246;BME280;39569;51.090;-1.786;2023-08-20T11:50:02;101511.03;;;41.41;20.63
53246;BME280;39569;51.090;-1.786;2023-08-20T11:52:30;101494.28;;;41.94;19.82
53246;BME280;39569;51.090;-1.786;2023-08-20T11:54:59;101502.44;;;44.89;19.26
53246;BME280;39569;51.090;-1.786;2023-08-20T11:57:28;101510.63;;;40.52;22.12
53246;BME280;39569;51.090;-1.786;2023-08-20T11:59:55;101499.19;;;40.73;23.08
53246;BME280;39569;51.090;-1.786;2023-08-20T12:02:26;101511.59;;;38.87;23.13
53246;BME280;39569;51.090;-1.786;2023-08-20T12:04:55;101514.16;;;37.31;25.04
53246;BME280;39569;51.090;-1.786;2023-08-20T12:07:25;101509.00;;;35.84;27.58
53246;BME280;39569;51.090;-1.786;2023-08-20T12:09:52;101512.97;;;36.94;25.45
53246;BME280;39569;51.090;-1.786;2023-08-20T12:12:22;101523.19;;;35.26;28.13
53246;BME280;39569;51.090;-1.786;2023-08-20T12:14:48;101512.19;;;36.34;27.12
53246;BME280;39569;51.090;-1.786;2023-08-20T12:17:17;101521.78;;;37.51;25.51
53246;BME280;39569;51.090;-1.786;2023-08-20T12:19:43;101506.88;;;38.47;24.05
53246;BME280;39569;51.090;-1.786;2023-08-20T12:22:10;101503.81;;;41.24;21.84
53246;BME280;39569;51.090;-1.786;2023-08-20T12:24:37;101509.34;;;39.25;22.70
53246;BME280;39569;51.090;-1.786;2023-08-20T12:27:04;101499.25;;;41.20;20.98
53246;BME280;39569;51.090;-1.786;2023-08-20T12:29:32;101505.88;;;38.30;23.79
53246;BME280;39569;51.090;-1.786;2023-08-20T12:31:59;101504.63;;;36.86;26.22
53246;BME280;39569;51.090;-1.786;2023-08-20T12:34:27;101508.84;;;37.00;26.84
53246;BME280;39569;51.090;-1.786;2023-08-20T12:36:54;101489.47;;;40.98;23.51
53246;BME280;39569;51.090;-1.786;2023-08-20T12:39:21;101494.56;;;41.08;21.59
53246;BME280;39569;51.090;-1.786;2023-08-20T12:41:49;101502.63;;;39.63;22.69
53246;BME280;39569;51.090;-1.786;2023-08-20T12:44:16;101502.72;;;40.02;22.15